Adams City, Colorado
Current Conditions -  °F | °C
As of 9:53 AM on Thursday 27 Nov 2014 (Local Time) from KDEN Reporting Station
Broken Clouds Broken Clouds  
Wind Chill: 53°   Ceiling: 16000
Heat Index: 53°   Visibility: 10mi
Dew Point: 18°   Wind: 6mph
Humidity: 25%   Direction: 220°SW
Pressure: 30.21"   Gusts: NA
Location:  39.8641°N, 104.821°W
Report Text: KDEN 271653Z 22005KT 10SM FEW120 BKN160 BKN220 12/M08 A3021 RMK AO2 SLP221 T01171078 $
Loading
Personal Weather Stations






























Interactive Weather Map New forecast layout! Learn more

10-Day Weather Forecast

Advertisements
Track Severe Weather on mobile